sensor_id;sensor_type;location;lat;lon;timestamp;P1;durP1;ratioP1;P2;durP2;ratioP2
36441;SDS011;64346;50.820;16.274;2023-06-14T00:00:23;12.95;;;7.55;;
36441;SDS011;64346;50.820;16.274;2023-06-14T00:03:12;12.85;;;8.15;;
36441;SDS011;64346;50.820;16.274;2023-06-14T00:05:43;11.85;;;7.68;;
36441;SDS011;64346;50.820;16.274;2023-06-14T00:08:11;14.75;;;9.10;;
36441;SDS011;64346;50.820;16.274;2023-06-14T00:10:38;13.85;;;8.77;;
36441;SDS011;64346;50.820;16.274;2023-06-14T00:13:06;12.15;;;7.57;;
36441;SDS011;64346;50.820;16.274;2023-06-14T00:15:34;12.05;;;7.00;;
36441;SDS011;64346;50.820;16.274;2023-06-14T00:18:02;13.38;;;8.25;;
36441;SDS011;64346;50.820;16.274;2023-06-14T00:20:30;13.60;;;8.68;;
36441;SDS011;64346;50.820;16.274;2023-06-14T00:22:59;12.80;;;7.40;;
36441;SDS011;64346;50.820;16.274;2023-06-14T00:25:28;14.23;;;7.35;;
36441;SDS011;64346;50.820;16.274;2023-06-14T00:27:56;11.23;;;7.05;;
36441;SDS011;64346;50.820;16.274;2023-06-14T00:30:27;12.98;;;7.32;;
36441;SDS011;64346;50.820;16.274;2023-06-14T00:32:56;11.68;;;8.05;;
36441;SDS011;64346;50.820;16.274;2023-06-14T00:35:23;10.70;;;6.15;;
36441;SDS011;64346;50.820;16.274;2023-06-14T00:37:51;13.88;;;7.20;;
36441;SDS011;64346;50.820;16.274;2023-06-14T00:40:21;12.75;;;7.07;;
36441;SDS011;64346;50.820;16.274;2023-06-14T00:42:51;10.68;;;6.57;;
36441;SDS011;64346;50.820;16.274;2023-06-14T00:45:18;12.27;;;6.82;;
36441;SDS011;64346;50.820;16.274;2023-06-14T00:47:46;12.45;;;6.45;;
36441;SDS011;64346;50.820;16.274;2023-06-14T00:50:16;12.35;;;7.20;;
36441;SDS011;64346;50.820;16.274;2023-06-14T00:52:44;11.70;;;7.25;;
36441;SDS011;64346;50.820;16.274;2023-06-14T00:55:12;10.40;;;6.38;;
36441;SDS011;64346;50.820;16.274;2023-06-14T00:57:39;11.82;;;6.30;;
36441;SDS011;64346;50.820;16.274;2023-06-14T01:00:07;10.80;;;6.13;;
36441;SDS011;64346;50.820;16.274;2023-06-14T01:02:38;13.68;;;6.95;;
36441;SDS011;64346;50.820;16.274;2023-06-14T01:05:06;12.73;;;7.38;;
36441;SDS011;64346;50.820;16.274;2023-06-14T01:07:43;10.80;;;6.55;;
36441;SDS011;64346;50.820;16.274;2023-06-14T01:13:20;10.85;;;6.28;;
36441;SDS011;64346;50.820;16.274;2023-06-14T01:15:59;12.40;;;6.55;;
36441;SDS011;64346;50.820;16.274;2023-06-14T01:18:28;10.88;;;6.75;;
36441;SDS011;64346;50.820;16.274;2023-06-14T01:20:55;9.77;;;6.32;;
36441;SDS011;64346;50.820;16.274;2023-06-14T01:23:25;10.02;;;6.40;;
36441;SDS011;64346;50.820;16.274;2023-06-14T01:25:57;10.15;;;6.68;;
36441;SDS011;64346;50.820;16.274;2023-06-14T01:28:24;11.93;;;6.85;;
36441;SDS011;64346;50.820;16.274;2023-06-14T01:30:54;11.40;;;7.00;;
36441;SDS011;64346;50.820;16.274;2023-06-14T01:33:22;10.63;;;6.22;;
36441;SDS011;64346;50.820;16.274;2023-06-14T01:35:53;10.93;;;6.35;;
36441;SDS011;64346;50.820;16.274;2023-06-14T01:38:24;10.70;;;6.40;;
36441;SDS011;64346;50.820;16.274;2023-06-14T01:40:54;12.40;;;6.75;;
36441;SDS011;64346;50.820;16.274;2023-06-14T01:43:23;11.68;;;7.45;;
36441;SDS011;64346;50.820;16.274;2023-06-14T01:45:52;11.15;;;7.10;;
36441;SDS011;64346;50.820;16.274;2023-06-14T01:48:21;11.35;;;7.25;;
36441;SDS011;64346;50.820;16.274;2023-06-14T01:50:51;11.95;;;7.90;;
36441;SDS011;64346;50.820;16.274;2023-06-14T01:53:19;13.25;;;7.57;;
36441;SDS011;64346;50.820;16.274;2023-06-14T01:55:46;12.02;;;7.00;;
36441;SDS011;64346;50.820;16.274;2023-06-14T01:58:13;11.70;;;7.53;;
36441;SDS011;64346;50.820;16.274;2023-06-14T02:00:43;12.57;;;7.38;;
36441;SDS011;64346;50.820;16.274;2023-06-14T02:03:13;11.82;;;7.40;;
36441;SDS011;64346;50.820;16.274;2023-06-14T02:05:40;13.43;;;6.90;;
36441;SDS011;64346;50.820;16.274;2023-06-14T02:08:07;13.68;;;6.97;;
36441;SDS011;64346;50.820;16.274;2023-06-14T02:10:35;14.88;;;7.25;;
36441;SDS011;64346;50.820;16.274;2023-06-14T02:13:02;11.35;;;6.60;;
36441;SDS011;64346;50.820;16.274;2023-06-14T02:15:32;11.93;;;7.40;;
36441;SDS011;64346;50.820;16.274;2023-06-14T02:18:02;11.38;;;6.70;;
36441;SDS011;64346;50.820;16.274;2023-06-14T02:20:31;12.63;;;7.45;;
36441;SDS011;64346;50.820;16.274;2023-06-14T02:22:58;11.57;;;7.78;;
36441;SDS011;64346;50.820;16.274;2023-06-14T02:25:26;10.75;;;6.78;;
36441;SDS011;64346;50.820;16.274;2023-06-14T02:27:53;11.80;;;7.70;;
36441;SDS011;64346;50.820;16.274;2023-06-14T02:30:21;12.98;;;7.63;;
36441;SDS011;64346;50.820;16.274;2023-06-14T02:32:48;12.98;;;7.68;;
36441;SDS011;64346;50.820;16.274;2023-06-14T02:35:16;11.48;;;7.03;;
36441;SDS011;64346;50.820;16.274;2023-06-14T02:37:43;12.40;;;6.78;;
36441;SDS011;64346;50.820;16.274;2023-06-14T02:40:11;11.95;;;7.85;;
36441;SDS011;64346;50.820;16.274;2023-06-14T02:42:39;11.27;;;7.30;;
36441;SDS011;64346;50.820;16.274;2023-06-14T02:45:07;13.38;;;7.32;;
36441;SDS011;64346;50.820;16.274;2023-06-14T02:47:35;11.02;;;6.70;;
36441;SDS011;64346;50.820;16.274;2023-06-14T02:50:02;13.48;;;7.03;;
36441;SDS011;64346;50.820;16.274;2023-06-14T02:52:33;10.05;;;6.70;;
36441;SDS011;64346;50.820;16.274;2023-06-14T02:55:00;13.40;;;6.90;;
36441;SDS011;64346;50.820;16.274;2023-06-14T02:57:27;9.30;;;6.13;;
36441;SDS011;64346;50.820;16.274;2023-06-14T02:59:55;11.63;;;6.97;;
36441;SDS011;64346;50.820;16.274;2023-06-14T03:02:25;12.05;;;6.53;;
36441;SDS011;64346;50.820;16.274;2023-06-14T03:04:52;12.85;;;7.60;;
36441;SDS011;64346;50.820;16.274;2023-06-14T03:07:21;12.88;;;7.32;;
36441;SDS011;64346;50.820;16.274;2023-06-14T03:09:49;11.80;;;7.32;;
36441;SDS011;64346;50.820;16.274;2023-06-14T03:12:18;12.07;;;6.65;;
36441;SDS011;64346;50.820;16.274;2023-06-14T03:14:46;12.15;;;6.80;;
36441;SDS011;64346;50.820;16.274;2023-06-14T03:17:15;10.63;;;6.22;;
36441;SDS011;64346;50.820;16.274;2023-06-14T03:19:45;12.50;;;7.43;;
36441;SDS011;64346;50.820;16.274;2023-06-14T03:22:12;11.40;;;6.60;;
36441;SDS011;64346;50.820;16.274;2023-06-14T03:24:39;12.05;;;6.65;;
36441;SDS011;64346;50.820;16.274;2023-06-14T03:27:09;11.20;;;6.72;;
36441;SDS011;64346;50.820;16.274;2023-06-14T03:29:38;11.48;;;6.30;;
36441;SDS011;64346;50.820;16.274;2023-06-14T03:32:06;11.90;;;6.97;;
36441;SDS011;64346;50.820;16.274;2023-06-14T03:34:33;9.88;;;6.25;;
36441;SDS011;64346;50.820;16.274;2023-06-14T03:37:01;10.50;;;6.95;;
36441;SDS011;64346;50.820;16.274;2023-06-14T03:39:28;10.07;;;6.65;;
36441;SDS011;64346;50.820;16.274;2023-06-14T03:41:55;10.65;;;5.97;;
36441;SDS011;64346;50.820;16.274;2023-06-14T03:44:23;10.05;;;6.60;;
36441;SDS011;64346;50.820;16.274;2023-06-14T03:46:50;10.20;;;5.72;;
36441;SDS011;64346;50.820;16.274;2023-06-14T03:49:20;10.50;;;6.40;;
36441;SDS011;64346;50.820;16.274;2023-06-14T03:51:52;10.20;;;6.03;;
36441;SDS011;64346;50.820;16.274;2023-06-14T03:54:19;11.77;;;6.65;;
36441;SDS011;64346;50.820;16.274;2023-06-14T03:56:49;12.15;;;6.75;;
36441;SDS011;64346;50.820;16.274;2023-06-14T03:59:17;10.02;;;5.90;;
36441;SDS011;64346;50.820;16.274;2023-06-14T04:01:44;12.15;;;6.10;;
36441;SDS011;64346;50.820;16.274;2023-06-14T04:04:11;10.02;;;6.15;;
36441;SDS011;64346;50.820;16.274;2023-06-14T04:06:41;10.48;;;6.30;;
36441;SDS011;64346;50.820;16.274;2023-06-14T04:09:09;11.02;;;6.22;;
36441;SDS011;64346;50.820;16.274;2023-06-14T04:11:38;12.93;;;6.78;;
36441;SDS011;64346;50.820;16.274;2023-06-14T04:14:08;10.35;;;6.35;;
36441;SDS011;64346;50.820;16.274;2023-06-14T04:16:35;13.40;;;6.68;;
36441;SDS011;64346;50.820;16.274;2023-06-14T04:19:03;10.63;;;6.57;;
36441;SDS011;64346;50.820;16.274;2023-06-14T04:21:30;10.82;;;6.45;;
36441;SDS011;64346;50.820;16.274;2023-06-14T04:23:57;13.13;;;6.68;;
36441;SDS011;64346;50.820;16.274;2023-06-14T04:26:24;14.98;;;8.25;;
36441;SDS011;64346;50.820;16.274;2023-06-14T04:28:53;12.07;;;6.97;;
36441;SDS011;64346;50.820;16.274;2023-06-14T04:31:23;11.65;;;6.65;;
36441;SDS011;64346;50.820;16.274;2023-06-14T04:33:53;10.55;;;6.57;;
36441;SDS011;64346;50.820;16.274;2023-06-14T04:36:20;10.38;;;7.22;;
36441;SDS011;64346;50.820;16.274;2023-06-14T04:38:48;11.18;;;6.47;;
36441;SDS011;64346;50.820;16.274;2023-06-14T04:41:15;10.55;;;6.60;;
36441;SDS011;64346;50.820;16.274;2023-06-14T04:43:42;11.15;;;6.20;;
36441;SDS011;64346;50.820;16.274;2023-06-14T04:46:09;13.88;;;7.53;;
36441;SDS011;64346;50.820;16.274;2023-06-14T04:48:40;11.23;;;7.43;;
36441;SDS011;64346;50.820;16.274;2023-06-14T04:51:10;21.88;;;16.05;;
36441;SDS011;64346;50.820;16.274;2023-06-14T04:53:37;29.27;;;20.98;;
36441;SDS011;64346;50.820;16.274;2023-06-14T04:56:07;13.40;;;8.15;;
36441;SDS011;64346;50.820;16.274;2023-06-14T04:58:34;11.32;;;6.80;;
36441;SDS011;64346;50.820;16.274;2023-06-14T05:01:01;13.98;;;7.57;;
36441;SDS011;64346;50.820;16.274;2023-06-14T05:03:31;12.30;;;7.38;;
36441;SDS011;64346;50.820;16.274;2023-06-14T05:05:58;12.43;;;7.55;;
36441;SDS011;64346;50.820;16.274;2023-06-14T05:08:26;12.98;;;7.57;;
36441;SDS011;64346;50.820;16.274;2023-06-14T05:10:53;13.70;;;8.25;;
36441;SDS011;64346;50.820;16.274;2023-06-14T05:13:20;12.80;;;8.18;;
36441;SDS011;64346;50.820;16.274;2023-06-14T05:15:48;11.13;;;6.32;;
36441;SDS011;64346;50.820;16.274;2023-06-14T05:18:18;12.27;;;6.50;;
36441;SDS011;64346;50.820;16.274;2023-06-14T05:20:45;10.52;;;6.57;;
36441;SDS011;64346;50.820;16.274;2023-06-14T05:23:12;11.40;;;6.80;;
36441;SDS011;64346;50.820;16.274;2023-06-14T05:25:39;11.55;;;7.45;;
36441;SDS011;64346;50.820;16.274;2023-06-14T05:28:08;12.70;;;7.22;;
36441;SDS011;64346;50.820;16.274;2023-06-14T05:30:37;11.73;;;7.38;;
36441;SDS011;64346;50.820;16.274;2023-06-14T05:33:05;10.70;;;7.15;;
36441;SDS011;64346;50.820;16.274;2023-06-14T05:35:33;12.50;;;6.88;;
36441;SDS011;64346;50.820;16.274;2023-06-14T05:38:01;12.68;;;7.00;;
36441;SDS011;64346;50.820;16.274;2023-06-14T05:40:29;12.00;;;6.22;;
36441;SDS011;64346;50.820;16.274;2023-06-14T05:42:56;13.45;;;6.93;;
36441;SDS011;64346;50.820;16.274;2023-06-14T05:45:23;12.05;;;6.82;;
36441;SDS011;64346;50.820;16.274;2023-06-14T05:47:53;11.23;;;7.05;;
36441;SDS011;64346;50.820;16.274;2023-06-14T05:50:20;11.90;;;6.85;;
36441;SDS011;64346;50.820;16.274;2023-06-14T05:52:48;10.35;;;6.30;;
36441;SDS011;64346;50.820;16.274;2023-06-14T05:55:16;10.50;;;5.80;;
36441;SDS011;64346;50.820;16.274;2023-06-14T05:57:44;10.00;;;6.20;;
36441;SDS011;64346;50.820;16.274;2023-06-14T06:00:11;13.98;;;6.28;;
36441;SDS011;64346;50.820;16.274;2023-06-14T06:02:42;12.75;;;5.35;;
36441;SDS011;64346;50.820;16.274;2023-06-14T06:05:11;8.43;;;4.80;;
36441;SDS011;64346;50.820;16.274;2023-06-14T06:07:42;9.32;;;5.25;;
36441;SDS011;64346;50.820;16.274;2023-06-14T06:10:12;9.32;;;4.82;;
36441;SDS011;64346;50.820;16.274;2023-06-14T06:12:40;8.68;;;4.75;;
36441;SDS011;64346;50.820;16.274;2023-06-14T06:15:08;10.68;;;5.90;;
36441;SDS011;64346;50.820;16.274;2023-06-14T06:17:36;10.20;;;5.40;;
36441;SDS011;64346;50.820;16.274;2023-06-14T06:20:20;9.05;;;5.28;;
36441;SDS011;64346;50.820;16.274;2023-06-14T06:22:48;8.68;;;5.43;;
36441;SDS011;64346;50.820;16.274;2023-06-14T06:25:15;10.48;;;5.50;;
36441;SDS011;64346;50.820;16.274;2023-06-14T06:27:43;11.90;;;5.10;;
36441;SDS011;64346;50.820;16.274;2023-06-14T06:30:13;8.20;;;4.43;;
36441;SDS011;64346;50.820;16.274;2023-06-14T06:32:40;9.00;;;4.88;;
36441;SDS011;64346;50.820;16.274;2023-06-14T06:35:10;8.18;;;4.60;;
36441;SDS011;64346;50.820;16.274;2023-06-14T06:37:38;12.60;;;5.20;;
36441;SDS011;64346;50.820;16.274;2023-06-14T06:40:08;9.40;;;5.10;;
36441;SDS011;64346;50.820;16.274;2023-06-14T06:42:36;8.65;;;5.43;;
36441;SDS011;64346;50.820;16.274;2023-06-14T06:45:03;10.13;;;5.28;;
36441;SDS011;64346;50.820;16.274;2023-06-14T06:47:31;9.23;;;4.72;;
36441;SDS011;64346;50.820;16.274;2023-06-14T06:49:58;10.35;;;5.68;;
36441;SDS011;64346;50.820;16.274;2023-06-14T06:52:26;8.55;;;4.90;;
36441;SDS011;64346;50.820;16.274;2023-06-14T06:54:53;10.77;;;5.80;;
36441;SDS011;64346;50.820;16.274;2023-06-14T06:57:21;11.73;;;6.07;;
36441;SDS011;64346;50.820;16.274;2023-06-14T06:59:49;9.57;;;5.68;;
36441;SDS011;64346;50.820;16.274;2023-06-14T07:02:16;9.90;;;5.82;;
36441;SDS011;64346;50.820;16.274;2023-06-14T07:04:44;9.85;;;5.10;;
36441;SDS011;64346;50.820;16.274;2023-06-14T07:07:12;19.15;;;11.10;;
36441;SDS011;64346;50.820;16.274;2023-06-14T07:09:39;8.90;;;5.15;;
36441;SDS011;64346;50.820;16.274;2023-06-14T07:12:06;9.43;;;5.53;;
36441;SDS011;64346;50.820;16.274;2023-06-14T07:14:34;8.63;;;5.20;;
36441;SDS011;64346;50.820;16.274;2023-06-14T07:17:04;10.65;;;6.47;;
36441;SDS011;64346;50.820;16.274;2023-06-14T07:19:36;9.23;;;5.07;;
36441;SDS011;64346;50.820;16.274;2023-06-14T07:22:06;11.75;;;4.93;;
36441;SDS011;64346;50.820;16.274;2023-06-14T07:24:33;10.63;;;5.47;;
36441;SDS011;64346;50.820;16.274;2023-06-14T07:27:01;7.90;;;4.97;;
36441;SDS011;64346;50.820;16.274;2023-06-14T07:29:28;8.98;;;4.43;;
36441;SDS011;64346;50.820;16.274;2023-06-14T07:31:55;8.20;;;5.03;;
36441;SDS011;64346;50.820;16.274;2023-06-14T07:34:25;9.40;;;5.22;;
36441;SDS011;64346;50.820;16.274;2023-06-14T07:36:52;9.65;;;6.20;;
36441;SDS011;64346;50.820;16.274;2023-06-14T07:39:20;10.38;;;5.95;;
36441;SDS011;64346;50.820;16.274;2023-06-14T07:41:50;10.20;;;6.22;;
36441;SDS011;64346;50.820;16.274;2023-06-14T07:44:17;9.88;;;5.45;;
36441;SDS011;64346;50.820;16.274;2023-06-14T07:46:47;13.20;;;6.63;;
36441;SDS011;64346;50.820;16.274;2023-06-14T07:49:14;10.52;;;6.60;;
36441;SDS011;64346;50.820;16.274;2023-06-14T07:51:42;10.20;;;6.38;;
36441;SDS011;64346;50.820;16.274;2023-06-14T07:54:11;11.50;;;7.45;;
36441;SDS011;64346;50.820;16.274;2023-06-14T07:56:38;11.43;;;6.72;;
36441;SDS011;64346;50.820;16.274;2023-06-14T07:59:09;11.80;;;7.95;;
36441;SDS011;64346;50.820;16.274;2023-06-14T08:01:37;12.23;;;7.45;;
36441;SDS011;64346;50.820;16.274;2023-06-14T08:04:07;12.18;;;8.23;;
36441;SDS011;64346;50.820;16.274;2023-06-14T08:06:37;12.10;;;7.88;;
36441;SDS011;64346;50.820;16.274;2023-06-14T08:09:04;11.70;;;7.60;;
36441;SDS011;64346;50.820;16.274;2023-06-14T08:11:32;12.88;;;8.35;;
36441;SDS011;64346;50.820;16.274;2023-06-14T08:14:01;12.18;;;7.75;;
36441;SDS011;64346;50.820;16.274;2023-06-14T08:16:31;13.48;;;8.55;;
36441;SDS011;64346;50.820;16.274;2023-06-14T08:18:59;17.58;;;8.10;;
36441;SDS011;64346;50.820;16.274;2023-06-14T08:21:26;17.13;;;9.30;;
36441;SDS011;64346;50.820;16.274;2023-06-14T08:23:57;16.70;;;10.55;;
36441;SDS011;64346;50.820;16.274;2023-06-14T08:26:30;13.23;;;9.68;;
36441;SDS011;64346;50.820;16.274;2023-06-14T08:28:57;15.20;;;9.77;;
36441;SDS011;64346;50.820;16.274;2023-06-14T08:31:25;14.68;;;9.43;;
36441;SDS011;64346;50.820;16.274;2023-06-14T08:33:52;14.15;;;9.25;;
36441;SDS011;64346;50.820;16.274;2023-06-14T08:36:20;15.52;;;10.00;;
36441;SDS011;64346;50.820;16.274;2023-06-14T08:38:47;13.90;;;8.88;;
36441;SDS011;64346;50.820;16.274;2023-06-14T08:41:20;13.88;;;9.77;;
36441;SDS011;64346;50.820;16.274;2023-06-14T08:43:48;14.68;;;10.27;;
36441;SDS011;64346;50.820;16.274;2023-06-14T08:46:21;13.85;;;9.13;;
36441;SDS011;64346;50.820;16.274;2023-06-14T08:48:51;13.38;;;9.18;;
36441;SDS011;64346;50.820;16.274;2023-06-14T08:51:20;14.73;;;9.98;;
36441;SDS011;64346;50.820;16.274;2023-06-14T08:53:55;13.63;;;9.40;;
36441;SDS011;64346;50.820;16.274;2023-06-14T08:56:26;13.15;;;8.43;;
36441;SDS011;64346;50.820;16.274;2023-06-14T08:58:54;16.63;;;9.95;;
36441;SDS011;64346;50.820;16.274;2023-06-14T09:01:23;15.90;;;10.63;;
36441;SDS011;64346;50.820;16.274;2023-06-14T09:03:50;12.38;;;8.98;;
36441;SDS011;64346;50.820;16.274;2023-06-14T09:06:18;13.30;;;9.60;;
36441;SDS011;64346;50.820;16.274;2023-06-14T09:08:46;17.92;;;12.82;;
36441;SDS011;64346;50.820;16.274;2023-06-14T09:11:18;17.08;;;12.05;;
36441;SDS011;64346;50.820;16.274;2023-06-14T09:13:50;15.02;;;9.68;;
36441;SDS011;64346;50.820;16.274;2023-06-14T09:16:17;14.23;;;9.40;;
36441;SDS011;64346;50.820;16.274;2023-06-14T09:18:45;16.08;;;10.43;;
36441;SDS011;64346;50.820;16.274;2023-06-14T09:21:14;16.75;;;11.05;;
36441;SDS011;64346;50.820;16.274;2023-06-14T09:23:47;14.13;;;10.13;;
36441;SDS011;64346;50.820;16.274;2023-06-14T09:26:16;14.13;;;10.07;;
36441;SDS011;64346;50.820;16.274;2023-06-14T09:28:47;13.63;;;9.30;;
36441;SDS011;64346;50.820;16.274;2023-06-14T09:31:17;17.10;;;11.67;;
36441;SDS011;64346;50.820;16.274;2023-06-14T09:33:48;16.05;;;10.95;;
36441;SDS011;64346;50.820;16.274;2023-06-14T09:36:17;15.73;;;9.95;;
36441;SDS011;64346;50.820;16.274;2023-06-14T09:39:06;15.02;;;10.73;;
36441;SDS011;64346;50.820;16.274;2023-06-14T09:41:34;13.48;;;9.93;;
36441;SDS011;64346;50.820;16.274;2023-06-14T09:44:06;18.35;;;10.40;;
36441;SDS011;64346;50.820;16.274;2023-06-14T09:46:45;15.10;;;11.18;;
36441;SDS011;64346;50.820;16.274;2023-06-14T09:49:14;14.38;;;10.00;;
36441;SDS011;64346;50.820;16.274;2023-06-14T09:51:45;14.18;;;9.15;;
36441;SDS011;64346;50.820;16.274;2023-06-14T09:54:18;12.98;;;8.98;;
36441;SDS011;64346;50.820;16.274;2023-06-14T09:56:49;13.27;;;8.77;;
36441;SDS011;64346;50.820;16.274;2023-06-14T09:59:19;16.00;;;9.98;;
36441;SDS011;64346;50.820;16.274;2023-06-14T10:01:48;14.65;;;10.18;;
36441;SDS011;64346;50.820;16.274;2023-06-14T10:04:16;15.07;;;10.07;;
36441;SDS011;64346;50.820;16.274;2023-06-14T10:06:50;15.95;;;10.43;;
36441;SDS011;64346;50.820;16.274;2023-06-14T10:09:19;15.02;;;10.45;;
36441;SDS011;64346;50.820;16.274;2023-06-14T10:11:50;14.70;;;10.30;;
36441;SDS011;64346;50.820;16.274;2023-06-14T10:14:17;16.40;;;11.02;;
36441;SDS011;64346;50.820;16.274;2023-06-14T10:19:44;16.50;;;11.63;;
36441;SDS011;64346;50.820;16.274;2023-06-14T10:25:02;14.07;;;9.75;;
36441;SDS011;64346;50.820;16.274;2023-06-14T10:27:34;14.13;;;9.80;;
36441;SDS011;64346;50.820;16.274;2023-06-14T10:30:02;15.93;;;11.77;;
36441;SDS011;64346;50.820;16.274;2023-06-14T10:32:31;13.82;;;9.52;;
36441;SDS011;64346;50.820;16.274;2023-06-14T10:34:59;15.70;;;10.73;;
36441;SDS011;64346;50.820;16.274;2023-06-14T10:37:33;18.52;;;15.18;;
36441;SDS011;64346;50.820;16.274;2023-06-14T10:40:01;14.55;;;10.68;;
36441;SDS011;64346;50.820;16.274;2023-06-14T10:42:33;14.43;;;10.65;;
36441;SDS011;64346;50.820;16.274;2023-06-14T10:45:05;14.27;;;9.95;;
36441;SDS011;64346;50.820;16.274;2023-06-14T10:47:36;13.88;;;9.85;;
36441;SDS011;64346;50.820;16.274;2023-06-14T10:50:07;13.25;;;9.73;;
36441;SDS011;64346;50.820;16.274;2023-06-14T10:52:41;12.15;;;8.68;;
36441;SDS011;64346;50.820;16.274;2023-06-14T10:55:16;12.57;;;8.32;;
36441;SDS011;64346;50.820;16.274;2023-06-14T10:57:52;13.07;;;8.68;;
36441;SDS011;64346;50.820;16.274;2023-06-14T11:00:21;12.75;;;8.90;;
36441;SDS011;64346;50.820;16.274;2023-06-14T11:11:09;12.73;;;7.70;;
36441;SDS011;64346;50.820;16.274;2023-06-14T11:13:38;12.48;;;8.27;;
36441;SDS011;64346;50.820;16.274;2023-06-14T11:16:16;13.07;;;9.18;;
36441;SDS011;64346;50.820;16.274;2023-06-14T11:18:45;15.30;;;10.25;;
36441;SDS011;64346;50.820;16.274;2023-06-14T11:21:18;15.88;;;11.23;;
36441;SDS011;64346;50.820;16.274;2023-06-14T11:23:51;14.80;;;9.60;;
36441;SDS011;64346;50.820;16.274;2023-06-14T11:26:26;15.55;;;8.40;;
36441;SDS011;64346;50.820;16.274;2023-06-14T11:28:56;13.30;;;8.65;;
36441;SDS011;64346;50.820;16.274;2023-06-14T11:31:29;12.53;;;8.07;;
36441;SDS011;64346;50.820;16.274;2023-06-14T11:34:00;13.35;;;8.68;;
36441;SDS011;64346;50.820;16.274;2023-06-14T11:36:30;12.57;;;7.38;;
36441;SDS011;64346;50.820;16.274;2023-06-14T11:39:00;11.63;;;7.30;;
36441;SDS011;64346;50.820;16.274;2023-06-14T11:41:32;12.55;;;7.47;;
36441;SDS011;64346;50.820;16.274;2023-06-14T11:44:01;11.45;;;7.72;;
36441;SDS011;64346;50.820;16.274;2023-06-14T11:46:34;12.34;;;7.92;;
36441;SDS011;64346;50.820;16.274;2023-06-14T11:49:02;10.10;;;7.22;;
36441;SDS011;64346;50.820;16.274;2023-06-14T11:51:31;11.43;;;7.03;;
36441;SDS011;64346;50.820;16.274;2023-06-14T11:54:03;11.75;;;6.72;;
36441;SDS011;64346;50.820;16.274;2023-06-14T11:56:33;10.23;;;6.55;;
36441;SDS011;64346;50.820;16.274;2023-06-14T11:59:03;10.52;;;6.85;;
36441;SDS011;64346;50.820;16.274;2023-06-14T12:01:35;12.13;;;7.25;;
36441;SDS011;64346;50.820;16.274;2023-06-14T12:04:03;12.75;;;8.07;;
36441;SDS011;64346;50.820;16.274;2023-06-14T12:06:30;11.25;;;6.07;;
36441;SDS011;64346;50.820;16.274;2023-06-14T12:08:58;11.48;;;6.70;;
36441;SDS011;64346;50.820;16.274;2023-06-14T12:11:32;9.50;;;5.43;;
36441;SDS011;64346;50.820;16.274;2023-06-14T12:14:08;9.63;;;5.82;;
36441;SDS011;64346;50.820;16.274;2023-06-14T12:16:37;12.23;;;6.43;;
36441;SDS011;64346;50.820;16.274;2023-06-14T12:19:12;9.82;;;5.75;;
36441;SDS011;64346;50.820;16.274;2023-06-14T12:21:43;9.90;;;6.25;;
36441;SDS011;64346;50.820;16.274;2023-06-14T12:24:14;11.15;;;6.13;;
36441;SDS011;64346;50.820;16.274;2023-06-14T12:26:41;11.70;;;6.85;;
36441;SDS011;64346;50.820;16.274;2023-06-14T12:29:09;10.07;;;5.65;;
36441;SDS011;64346;50.820;16.274;2023-06-14T12:31:37;10.77;;;5.50;;
36441;SDS011;64346;50.820;16.274;2023-06-14T12:34:07;9.75;;;5.65;;
36441;SDS011;64346;50.820;16.274;2023-06-14T12:36:37;12.77;;;7.30;;
36441;SDS011;64346;50.820;16.274;2023-06-14T12:39:07;13.55;;;8.38;;
36441;SDS011;64346;50.820;16.274;2023-06-14T12:41:37;17.50;;;8.45;;
36441;SDS011;64346;50.820;16.274;2023-06-14T12:44:07;17.63;;;12.30;;
36441;SDS011;64346;50.820;16.274;2023-06-14T12:46:34;15.52;;;8.80;;
36441;SDS011;64346;50.820;16.274;2023-06-14T12:49:04;12.77;;;8.70;;
36441;SDS011;64346;50.820;16.274;2023-06-14T12:51:32;19.73;;;9.50;;
36441;SDS011;64346;50.820;16.274;2023-06-14T12:54:02;21.95;;;10.43;;
36441;SDS011;64346;50.820;16.274;2023-06-14T12:56:32;13.68;;;8.60;;
36441;SDS011;64346;50.820;16.274;2023-06-14T12:59:04;14.45;;;8.73;;
36441;SDS011;64346;50.820;16.274;2023-06-14T13:01:31;16.67;;;10.48;;
36441;SDS011;64346;50.820;16.274;2023-06-14T13:04:06;14.38;;;8.80;;
36441;SDS011;64346;50.820;16.274;2023-06-14T13:06:34;16.77;;;9.80;;
36441;SDS011;64346;50.820;16.274;2023-06-14T13:09:01;14.65;;;9.10;;
36441;SDS011;64346;50.820;16.274;2023-06-14T13:11:29;14.75;;;9.13;;
36441;SDS011;64346;50.820;16.274;2023-06-14T13:13:56;13.13;;;7.53;;
36441;SDS011;64346;50.820;16.274;2023-06-14T13:16:24;16.15;;;8.05;;
36441;SDS011;64346;50.820;16.274;2023-06-14T13:18:54;12.95;;;8.07;;
36441;SDS011;64346;50.820;16.274;2023-06-14T13:21:21;12.88;;;7.75;;
36441;SDS011;64346;50.820;16.274;2023-06-14T13:23:49;12.90;;;7.47;;
36441;SDS011;64346;50.820;16.274;2023-06-14T13:26:18;14.20;;;6.20;;
36441;SDS011;64346;50.820;16.274;2023-06-14T13:28:46;12.95;;;7.95;;
36441;SDS011;64346;50.820;16.274;2023-06-14T13:31:13;13.98;;;8.15;;
36441;SDS011;64346;50.820;16.274;2023-06-14T13:33:41;17.17;;;11.43;;
36441;SDS011;64346;50.820;16.274;2023-06-14T13:36:08;14.13;;;7.53;;
36441;SDS011;64346;50.820;16.274;2023-06-14T13:38:36;13.35;;;8.18;;
36441;SDS011;64346;50.820;16.274;2023-06-14T13:41:03;12.48;;;7.65;;
36441;SDS011;64346;50.820;16.274;2023-06-14T13:43:31;14.25;;;8.23;;
36441;SDS011;64346;50.820;16.274;2023-06-14T13:46:00;12.93;;;8.25;;
36441;SDS011;64346;50.820;16.274;2023-06-14T13:48:30;13.20;;;7.63;;
36441;SDS011;64346;50.820;16.274;2023-06-14T13:50:59;13.00;;;7.07;;
36441;SDS011;64346;50.820;16.274;2023-06-14T13:53:27;13.18;;;7.60;;
36441;SDS011;64346;50.820;16.274;2023-06-14T13:55:54;12.07;;;7.00;;
36441;SDS011;64346;50.820;16.274;2023-06-14T13:58:21;24.65;;;14.95;;
36441;SDS011;64346;50.820;16.274;2023-06-14T14:00:49;15.05;;;8.65;;
36441;SDS011;64346;50.820;16.274;2023-06-14T14:03:19;12.55;;;7.30;;
36441;SDS011;64346;50.820;16.274;2023-06-14T14:05:46;10.65;;;6.10;;
36441;SDS011;64346;50.820;16.274;2023-06-14T14:08:16;9.90;;;5.75;;
36441;SDS011;64346;50.820;16.274;2023-06-14T14:10:43;7.95;;;4.53;;
36441;SDS011;64346;50.820;16.274;2023-06-14T14:13:11;6.65;;;4.03;;
36441;SDS011;64346;50.820;16.274;2023-06-14T14:15:39;6.60;;;3.83;;
36441;SDS011;64346;50.820;16.274;2023-06-14T14:18:06;7.43;;;4.00;;
36441;SDS011;64346;50.820;16.274;2023-06-14T14:20:33;5.57;;;3.20;;
36441;SDS011;64346;50.820;16.274;2023-06-14T14:23:01;5.88;;;3.50;;
36441;SDS011;64346;50.820;16.274;2023-06-14T14:25:28;8.25;;;4.40;;
36441;SDS011;64346;50.820;16.274;2023-06-14T14:27:56;6.75;;;3.70;;
36441;SDS011;64346;50.820;16.274;2023-06-14T14:30:23;10.18;;;6.00;;
36441;SDS011;64346;50.820;16.274;2023-06-14T14:32:51;5.97;;;3.72;;
36441;SDS011;64346;50.820;16.274;2023-06-14T14:35:18;8.55;;;4.47;;
36441;SDS011;64346;50.820;16.274;2023-06-14T14:37:52;8.10;;;4.53;;
36441;SDS011;64346;50.820;16.274;2023-06-14T14:40:19;10.00;;;5.15;;
36441;SDS011;64346;50.820;16.274;2023-06-14T14:42:46;9.98;;;4.82;;
36441;SDS011;64346;50.820;16.274;2023-06-14T14:45:13;7.68;;;4.35;;
36441;SDS011;64346;50.820;16.274;2023-06-14T14:47:43;7.10;;;4.18;;